createdAt,value
2019-06-26T00:01:28.052Z,21.85
2019-06-26T00:04:00.513Z,21.80
2019-06-26T00:06:32.785Z,21.72
2019-06-26T00:09:09.008Z,21.67
2019-06-26T00:11:42.449Z,21.65
2019-06-26T00:14:14.823Z,21.55
2019-06-26T00:16:47.002Z,21.50
2019-06-26T00:19:22.242Z,21.43
2019-06-26T00:21:54.501Z,21.32
2019-06-26T00:24:26.812Z,21.27
2019-06-26T00:26:59.670Z,21.20
2019-06-26T00:29:34.170Z,21.19
2019-06-26T00:32:06.577Z,21.16
2019-06-26T00:34:39.434Z,21.07
2019-06-26T00:37:12.784Z,21.01
2019-06-26T00:39:48.054Z,20.96
2019-06-26T00:42:20.347Z,20.86
2019-06-26T00:44:52.605Z,20.75
2019-06-26T00:47:25.293Z,20.68
2019-06-26T00:49:59.645Z,20.65
2019-06-26T00:52:32.324Z,20.56
2019-06-26T00:55:06.239Z,20.51
2019-06-26T00:57:39.070Z,20.48
2019-06-26T01:00:13.066Z,20.42
2019-06-26T01:02:46.140Z,20.42
2019-06-26T01:05:21.226Z,20.37
2019-06-26T01:07:58.073Z,20.36
2019-06-26T01:10:30.455Z,20.32
2019-06-26T01:13:05.325Z,20.34
2019-06-26T01:15:39.215Z,20.30
2019-06-26T01:18:11.628Z,20.28
2019-06-26T01:20:44.940Z,20.24
2019-06-26T01:23:17.414Z,20.16
2019-06-26T01:25:49.718Z,20.12
2019-06-26T01:28:22.874Z,20.09
2019-06-26T01:30:55.195Z,20.09
2019-06-26T01:33:27.585Z,20.09
2019-06-26T01:35:59.865Z,20.00
2019-06-26T01:38:32.246Z,19.93
2019-06-26T01:41:04.660Z,19.90
2019-06-26T01:43:37.002Z,19.86
2019-06-26T01:46:10.581Z,19.85
2019-06-26T01:48:43.060Z,19.86
2019-06-26T01:51:15.422Z,19.90
2019-06-26T01:53:48.748Z,19.90
2019-06-26T01:56:21.058Z,19.85
2019-06-26T01:58:53.451Z,19.82
2019-06-26T02:01:26.014Z,19.73
2019-06-26T02:03:58.954Z,19.79
2019-06-26T02:06:31.320Z,20.03
2019-06-26T02:09:05.089Z,20.33
2019-06-26T02:11:37.890Z,20.61
2019-06-26T02:14:11.802Z,20.84
2019-06-26T02:16:45.410Z,21.04
2019-06-26T02:19:19.239Z,21.30
2019-06-26T02:21:53.769Z,21.49
2019-06-26T02:24:26.128Z,21.84
2019-06-26T02:26:58.525Z,22.22
2019-06-26T02:29:30.946Z,22.67
2019-06-26T02:32:03.278Z,22.96
2019-06-26T02:34:36.185Z,23.22
2019-06-26T02:37:09.961Z,23.43
2019-06-26T02:39:42.378Z,23.79
2019-06-26T02:42:16.093Z,24.07
2019-06-26T02:44:53.743Z,24.29
2019-06-26T02:47:22.661Z,24.47
2019-06-26T02:49:54.980Z,24.73
2019-06-26T02:52:28.278Z,24.85
2019-06-26T02:55:00.605Z,25.26
2019-06-26T02:57:33.152Z,25.64
2019-06-26T03:00:07.610Z,25.92
2019-06-26T03:02:41.254Z,26.35
2019-06-26T03:05:14.290Z,26.78
2019-06-26T03:07:48.707Z,27.19
2019-06-26T03:10:21.104Z,27.36
2019-06-26T03:12:54.535Z,27.78
2019-06-26T03:15:31.111Z,27.74
2019-06-26T03:18:03.508Z,27.78
2019-06-26T03:20:41.678Z,27.71
2019-06-26T03:23:16.842Z,27.46
2019-06-26T03:25:49.213Z,27.39
2019-06-26T03:28:21.962Z,27.24
2019-06-26T03:30:54.277Z,26.84
2019-06-26T03:33:27.704Z,26.40
2019-06-26T03:36:00.008Z,25.91
2019-06-26T03:38:32.369Z,25.54
2019-06-26T03:41:04.777Z,25.23
2019-06-26T03:43:38.234Z,25.08
2019-06-26T03:46:10.507Z,25.03
2019-06-26T03:48:42.870Z,25.07
2019-06-26T03:51:16.772Z,25.03
2019-06-26T03:53:49.079Z,25.05
2019-06-26T03:56:22.935Z,25.07
2019-06-26T03:58:56.450Z,25.06
2019-06-26T04:01:29.817Z,25.06
2019-06-26T04:04:02.079Z,25.11
2019-06-26T04:06:34.444Z,25.14
2019-06-26T04:09:07.270Z,25.21
2019-06-26T04:11:41.106Z,25.38
2019-06-26T04:14:13.401Z,25.53
2019-06-26T04:16:47.216Z,25.70
2019-06-26T04:19:19.654Z,25.79
2019-06-26T04:21:51.937Z,25.85
2019-06-26T04:24:26.158Z,25.85
2019-06-26T04:27:00.063Z,25.84
2019-06-26T04:29:35.095Z,26.02
2019-06-26T04:32:07.507Z,26.16
2019-06-26T04:34:39.927Z,26.32
2019-06-26T04:37:12.295Z,26.41
2019-06-26T04:39:44.630Z,26.28
2019-06-26T04:42:16.975Z,26.13
2019-06-26T04:44:50.919Z,25.97
2019-06-26T04:47:24.817Z,25.91
2019-06-26T04:49:58.065Z,25.89
2019-06-26T04:52:32.178Z,25.96
2019-06-26T04:55:10.500Z,25.95
2019-06-26T04:57:42.941Z,25.94
2019-06-26T05:00:17.347Z,25.90
2019-06-26T05:02:49.672Z,25.88
2019-06-26T05:05:38.184Z,25.94
2019-06-26T05:07:56.093Z,25.95
2019-06-26T05:10:28.538Z,25.87
2019-06-26T05:13:00.979Z,25.76
2019-06-26T05:15:33.604Z,25.69
2019-06-26T05:18:06.033Z,25.75
2019-06-26T05:20:39.258Z,25.82
2019-06-26T05:23:11.613Z,25.85
2019-06-26T05:25:43.848Z,25.95
2019-06-26T05:28:16.193Z,25.94
2019-06-26T05:30:53.533Z,25.85
2019-06-26T05:33:26.018Z,25.85
2019-06-26T05:35:58.864Z,25.99
2019-06-26T05:38:31.091Z,26.16
2019-06-26T05:41:03.954Z,26.26
2019-06-26T05:43:37.890Z,26.43
2019-06-26T05:46:11.803Z,26.51
2019-06-26T05:48:45.238Z,26.65
2019-06-26T05:51:17.469Z,26.68
2019-06-26T05:53:49.957Z,26.82
2019-06-26T07:25:57.284Z,28.19
2019-06-26T07:28:30.267Z,28.30
2019-06-26T07:31:02.631Z,28.30
2019-06-26T07:33:34.939Z,28.25
2019-06-26T07:36:07.420Z,28.25
2019-06-26T07:38:39.913Z,28.17
2019-06-26T07:41:12.308Z,28.20
2019-06-26T07:43:44.565Z,28.42
2019-06-26T07:46:16.873Z,28.48
2019-06-26T07:48:49.164Z,28.49
2019-06-26T07:51:21.698Z,28.52
2019-06-26T07:53:54.158Z,28.37
2019-06-26T07:56:26.414Z,28.34
2019-06-26T07:58:59.947Z,28.47
2019-06-26T08:01:33.820Z,28.46
2019-06-26T08:04:08.273Z,28.43
2019-06-26T08:06:40.808Z,28.50
2019-06-26T08:09:13.817Z,28.59
2019-06-26T08:11:46.151Z,28.72
2019-06-26T08:14:20.072Z,28.83
2019-06-26T08:16:52.451Z,28.92
2019-06-26T08:19:26.217Z,28.85
2019-06-26T08:22:01.718Z,28.80
2019-06-26T08:24:34.013Z,28.88
2019-06-26T08:27:06.449Z,28.79
2019-06-26T08:29:39.882Z,28.72
2019-06-26T08:32:12.239Z,28.77
2019-06-26T08:34:44.677Z,28.92
2019-06-26T08:37:18.805Z,29.15
2019-06-26T08:39:51.446Z,29.13
2019-06-26T08:42:23.840Z,28.95
2019-06-26T08:44:57.665Z,28.88
2019-06-26T08:47:32.987Z,28.98
2019-06-26T08:50:10.725Z,29.13
2019-06-26T08:52:44.692Z,29.24
2019-06-26T08:55:17.674Z,29.27
2019-06-26T08:57:50.029Z,29.09
2019-06-26T09:00:24.784Z,28.99
2019-06-26T09:02:57.193Z,28.91
2019-06-26T09:05:43.526Z,28.79
2019-06-26T09:08:03.849Z,28.79
2019-06-26T09:10:36.865Z,28.88
2019-06-26T09:13:10.107Z,29.06
2019-06-26T09:15:42.393Z,29.13
2019-06-26T09:18:14.745Z,29.25
2019-06-26T09:20:47.169Z,29.34
2019-06-26T09:23:21.054Z,29.37
2019-06-26T09:25:53.473Z,29.32
2019-06-26T09:28:26.543Z,29.27
2019-06-26T09:30:58.900Z,29.37
2019-06-26T09:33:32.554Z,29.35
2019-06-26T09:36:06.971Z,29.48
2019-06-26T09:38:39.832Z,29.55
2019-06-26T09:41:12.307Z,29.56
2019-06-26T09:43:44.678Z,29.48
2019-06-26T09:46:17.102Z,29.53
2019-06-26T09:48:53.215Z,29.48
2019-06-26T09:51:23.932Z,29.71
2019-06-26T09:53:56.331Z,29.70
2019-06-26T09:56:28.660Z,29.65
2019-06-26T09:59:01.130Z,29.64
2019-06-26T10:01:35.171Z,29.63
2019-06-26T10:04:09.686Z,29.59
2019-06-26T10:06:42.342Z,29.60
2019-06-26T10:09:15.424Z,29.61
2019-06-26T10:11:49.843Z,29.59
2019-06-26T10:14:23.135Z,29.79
2019-06-26T10:16:55.554Z,29.86
2019-06-26T10:19:28.067Z,29.75
2019-06-26T10:22:01.663Z,29.63
2019-06-26T10:24:33.937Z,29.58
2019-06-26T10:27:08.639Z,29.76
2019-06-26T10:29:40.934Z,29.83
2019-06-26T10:32:15.419Z,29.96
2019-06-26T10:34:49.663Z,29.88
2019-06-26T10:37:23.792Z,29.80
2019-06-26T10:39:56.148Z,29.65
2019-06-26T10:42:28.727Z,29.56
2019-06-26T10:45:01.767Z,29.51
2019-06-26T10:47:35.022Z,29.53
2019-06-26T10:50:24.157Z,29.57
2019-06-26T10:52:59.420Z,29.75
2019-06-26T10:55:31.743Z,29.81
2019-06-26T10:58:04.084Z,29.98
2019-06-26T11:00:41.404Z,30.06
2019-06-26T11:03:13.757Z,30.06
2019-06-26T11:05:48.827Z,30.04
2019-06-26T11:08:20.437Z,29.99
2019-06-26T11:10:53.046Z,30.06
2019-06-26T11:13:26.961Z,30.02
2019-06-26T11:15:59.492Z,29.97
2019-06-26T11:18:33.467Z,29.88
2019-06-26T11:21:08.415Z,29.77
2019-06-26T11:23:43.507Z,29.65
2019-06-26T11:26:15.985Z,29.61
2019-06-26T11:28:51.329Z,29.69
2019-06-26T11:31:25.323Z,29.73
2019-06-26T11:34:16.660Z,29.80
2019-06-26T11:37:02.643Z,29.94
2019-06-26T11:39:24.543Z,29.90
2019-06-26T11:41:56.913Z,29.81
2019-06-26T11:44:29.530Z,29.80
2019-06-26T11:47:01.826Z,29.92
2019-06-26T11:49:40.658Z,30.04
2019-06-26T11:52:18.303Z,30.02
2019-06-26T11:55:01.897Z,30.01
2019-06-26T11:57:27.378Z,30.08
2019-06-26T12:00:02.070Z,30.22
2019-06-26T12:02:36.064Z,30.25
2019-06-26T12:05:24.760Z,30.12
2019-06-26T12:07:57.247Z,29.94
2019-06-26T12:10:32.183Z,29.81
2019-06-26T12:13:06.162Z,29.82
2019-06-26T12:15:38.566Z,29.77
2019-06-26T12:18:10.917Z,29.77
2019-06-26T12:20:44.549Z,29.80
2019-06-26T12:23:34.605Z,29.82
2019-06-26T12:26:07.555Z,29.88
2019-06-26T12:28:57.551Z,29.85
2019-06-26T12:31:43.618Z,29.86
2019-06-26T12:34:33.682Z,29.79
2019-06-26T12:37:07.056Z,29.80
2019-06-26T12:39:40.457Z,29.88
2019-06-26T12:42:29.002Z,30.07
2019-06-26T12:45:17.814Z,30.17
2019-06-26T12:48:09.444Z,30.05
2019-06-26T12:50:42.035Z,29.92
2019-06-26T12:53:30.588Z,29.80
2019-06-26T12:56:21.551Z,29.73
2019-06-26T12:59:10.439Z,29.71
2019-06-26T13:01:46.403Z,29.70
2019-06-26T13:04:18.886Z,29.86
2019-06-26T13:06:53.112Z,29.88
2019-06-26T13:09:26.381Z,29.98
2019-06-26T13:12:00.592Z,30.14
2019-06-26T13:14:34.659Z,30.14
2019-06-26T13:17:10.330Z,30.15
2019-06-26T13:19:44.572Z,30.24
2019-06-26T13:22:17.002Z,30.36
2019-06-26T13:24:50.805Z,30.33
2019-06-26T13:27:23.308Z,30.27
2019-06-26T13:29:56.627Z,30.15
2019-06-26T13:32:30.591Z,29.97
2019-06-26T13:35:05.483Z,29.82
2019-06-26T13:37:38.909Z,29.64
2019-06-26T13:40:11.826Z,29.48
2019-06-26T13:42:49.971Z,29.43
2019-06-26T13:45:23.767Z,29.47
2019-06-26T13:47:57.458Z,29.43
2019-06-26T13:50:29.895Z,29.46
2019-06-26T13:53:03.713Z,29.53
2019-06-26T13:55:36.052Z,29.54
2019-06-26T13:58:08.510Z,29.64
2019-06-26T14:00:42.283Z,29.75
2019-06-26T14:03:15.465Z,29.85
2019-06-26T14:05:49.435Z,29.85
2019-06-26T14:08:23.371Z,29.84
2019-06-26T14:10:55.833Z,29.75
2019-06-26T14:13:28.873Z,29.75
2019-06-26T14:16:01.828Z,29.76
2019-06-26T14:18:34.191Z,29.78
2019-06-26T14:21:06.590Z,29.68
2019-06-26T14:23:41.177Z,29.64
2019-06-26T14:26:15.718Z,29.51
2019-06-26T14:28:48.160Z,29.34
2019-06-26T14:31:21.427Z,29.21
2019-06-26T14:34:11.829Z,29.15
2019-06-26T14:36:44.216Z,29.28
2019-06-26T14:39:18.862Z,29.28
2019-06-26T14:41:51.462Z,29.24
2019-06-26T14:44:25.290Z,29.18
2019-06-26T14:46:57.683Z,29.20
2019-06-26T14:49:31.580Z,29.22
2019-06-26T14:52:04.055Z,29.18
2019-06-26T14:54:36.506Z,29.20
2019-06-26T14:57:10.398Z,29.13
2019-06-26T14:59:43.873Z,29.09
2019-06-26T15:02:19.071Z,29.03
2019-06-26T15:04:52.115Z,28.95
2019-06-26T15:07:25.898Z,28.82
2019-06-26T15:09:59.506Z,28.79
2019-06-26T15:12:32.444Z,28.75
2019-06-26T15:15:05.563Z,28.78
2019-06-26T15:17:37.897Z,28.83
2019-06-26T15:20:13.069Z,28.73
2019-06-26T15:22:46.602Z,28.62
2019-06-26T15:25:23.284Z,28.57
2019-06-26T15:27:56.859Z,28.52
2019-06-26T15:30:30.820Z,28.50
2019-06-26T15:33:04.843Z,28.41
2019-06-26T15:35:37.179Z,28.41
2019-06-26T15:38:09.526Z,28.42
2019-06-26T15:40:41.892Z,28.36
2019-06-26T15:43:14.294Z,28.29
2019-06-26T15:45:46.741Z,28.22
2019-06-26T15:48:19.561Z,28.21
2019-06-26T15:50:51.867Z,28.17
2019-06-26T15:53:24.201Z,28.14
2019-06-26T15:55:58.832Z,28.16
2019-06-26T15:58:31.173Z,28.14
2019-06-26T16:01:03.633Z,28.15
2019-06-26T16:03:37.597Z,28.14
2019-06-26T16:06:11.341Z,28.08
2019-06-26T16:08:43.970Z,28.01
2019-06-26T16:11:16.821Z,27.93
2019-06-26T16:13:51.652Z,27.89
2019-06-26T16:16:25.808Z,27.85
2019-06-26T16:19:06.812Z,27.80
2019-06-26T16:21:40.637Z,27.77
2019-06-26T16:24:12.933Z,27.76
2019-06-26T16:26:45.874Z,27.68
2019-06-26T16:29:19.649Z,27.66
2019-06-26T16:31:53.718Z,27.60
2019-06-26T16:34:27.214Z,27.55
2019-06-26T16:37:01.142Z,27.47
2019-06-26T16:39:33.515Z,27.40
2019-06-26T16:42:05.915Z,27.33
2019-06-26T16:44:42.230Z,27.28
2019-06-26T16:47:14.674Z,27.22
2019-06-26T16:49:50.552Z,27.13
2019-06-26T16:52:24.261Z,27.04
2019-06-26T16:55:00.438Z,26.94
2019-06-26T16:57:33.359Z,26.85
2019-06-26T17:00:10.525Z,26.72
2019-06-26T17:02:44.584Z,26.60
2019-06-26T17:05:18.365Z,26.50
2019-06-26T17:07:50.912Z,26.42
2019-06-26T17:10:24.266Z,26.33
2019-06-26T17:12:57.010Z,26.26
2019-06-26T17:15:29.547Z,26.20
2019-06-26T17:18:02.165Z,26.10
2019-06-26T17:20:35.785Z,26.00
2019-06-26T17:23:09.225Z,25.92
2019-06-26T17:25:43.698Z,25.84
2019-06-26T17:28:16.106Z,25.78
2019-06-26T17:30:54.139Z,25.70
2019-06-26T17:33:26.760Z,25.60
2019-06-26T17:36:00.066Z,25.52
2019-06-26T17:38:32.553Z,25.42
2019-06-26T17:41:05.045Z,25.33
2019-06-26T17:43:37.805Z,25.27
2019-06-26T17:46:10.461Z,25.19
2019-06-26T17:48:42.953Z,25.11
2019-06-26T17:51:17.452Z,25.03
2019-06-26T17:53:52.420Z,24.91
2019-06-26T17:56:28.329Z,24.81
2019-06-26T17:59:01.048Z,24.73
2019-06-26T18:01:37.887Z,24.64
2019-06-26T18:04:10.365Z,24.57
2019-06-26T18:06:45.890Z,24.51
2019-06-26T18:09:18.309Z,24.45
2019-06-26T18:11:52.069Z,24.40
2019-06-26T18:14:24.616Z,24.35
2019-06-26T18:16:58.659Z,24.27
2019-06-26T18:19:32.520Z,24.20
2019-06-26T18:22:05.178Z,24.10
2019-06-26T18:24:37.907Z,24.02
2019-06-26T18:27:10.492Z,23.98
2019-06-26T18:29:43.136Z,23.94
2019-06-26T18:32:17.999Z,23.92
2019-06-26T18:34:53.364Z,23.88
2019-06-26T18:37:26.904Z,23.86
2019-06-26T18:40:00.129Z,23.84
2019-06-26T18:42:32.902Z,23.79
2019-06-26T18:45:07.043Z,23.79
2019-06-26T18:47:42.958Z,23.74
2019-06-26T18:50:16.286Z,23.76
2019-06-26T18:52:51.739Z,23.78
2019-06-26T18:55:24.605Z,23.78
2019-06-26T18:57:57.273Z,23.75
2019-06-26T19:00:31.396Z,23.75
2019-06-26T19:03:05.393Z,23.70
2019-06-26T19:05:38.642Z,23.64
2019-06-26T19:08:11.671Z,23.57
2019-06-26T19:10:45.125Z,23.50
2019-06-26T19:13:20.583Z,23.44
2019-06-26T19:15:55.088Z,23.37
2019-06-26T19:18:29.788Z,23.32
2019-06-26T19:21:08.144Z,23.29
2019-06-26T19:23:43.987Z,23.25
2019-06-26T19:26:18.669Z,23.19
2019-06-26T19:28:55.189Z,23.15
2019-06-26T19:31:27.612Z,23.10
2019-06-26T19:34:02.309Z,23.05
2019-06-26T19:36:49.034Z,23.02
2019-06-26T19:39:08.922Z,22.99
2019-06-26T19:41:42.953Z,22.95
2019-06-26T19:44:15.407Z,22.91
2019-06-26T19:46:47.927Z,22.88
2019-06-26T19:49:22.637Z,22.85
2019-06-26T19:51:55.246Z,22.82
2019-06-26T19:54:32.048Z,22.82
2019-06-26T19:57:02.975Z,22.82
2019-06-26T19:59:38.251Z,22.81
2019-06-26T20:02:11.798Z,22.79
2019-06-26T20:04:48.395Z,22.79
2019-06-26T20:07:23.591Z,22.75
2019-06-26T20:10:01.569Z,22.66
2019-06-26T20:12:33.232Z,22.64
2019-06-26T20:15:08.089Z,22.63
2019-06-26T20:17:43.149Z,22.61
2019-06-26T20:20:16.825Z,22.57
2019-06-26T20:22:51.161Z,22.55
2019-06-26T20:25:26.161Z,22.53
2019-06-26T20:27:59.368Z,22.51
2019-06-26T20:30:34.348Z,22.49
2019-06-26T20:33:06.768Z,22.46
2019-06-26T20:35:39.088Z,22.49
2019-06-26T20:38:11.862Z,22.46
2019-06-26T20:40:46.184Z,22.39
2019-06-26T20:43:20.487Z,22.35
2019-06-26T20:45:53.004Z,22.31
2019-06-26T20:48:27.783Z,22.28
2019-06-26T20:51:01.701Z,22.25
2019-06-26T20:53:34.408Z,22.23
2019-06-26T20:56:08.815Z,22.22
2019-06-26T20:58:41.465Z,22.21
2019-06-26T21:01:13.827Z,22.16
2019-06-26T21:03:46.313Z,22.13
2019-06-26T21:09:24.134Z,22.07
2019-06-26T21:15:00.524Z,21.72
2019-06-26T21:17:37.747Z,21.52
2019-06-26T21:20:14.870Z,21.38
2019-06-26T21:22:53.288Z,21.27
2019-06-26T21:25:30.977Z,21.11
2019-06-26T21:28:10.369Z,20.95
2019-06-26T21:30:47.201Z,20.86
2019-06-26T21:33:25.389Z,20.78
2019-06-26T21:36:05.021Z,20.67
2019-06-26T21:38:41.070Z,20.55
2019-06-26T21:41:20.907Z,20.38
2019-06-26T21:43:54.539Z,20.27
2019-06-26T21:46:31.722Z,20.15
2019-06-26T21:49:07.015Z,20.04
2019-06-26T21:51:40.434Z,20.00
2019-06-26T21:54:17.684Z,19.90
2019-06-26T21:57:09.769Z,19.77
2019-06-26T22:00:01.415Z,19.72
2019-06-26T22:02:52.703Z,19.75
2019-06-26T22:05:27.162Z,19.73
2019-06-26T22:08:17.320Z,19.71
2019-06-26T22:10:57.002Z,19.70
2019-06-26T22:13:30.026Z,19.68
2019-06-26T22:16:02.371Z,19.71
2019-06-26T22:18:34.765Z,19.81
2019-06-26T22:21:07.276Z,19.91
2019-06-26T22:23:39.709Z,19.96
2019-06-26T22:26:14.313Z,19.91
2019-06-26T22:28:48.810Z,19.84
2019-06-26T22:31:23.727Z,19.78
2019-06-26T22:33:58.365Z,19.66
2019-06-26T22:36:32.699Z,19.51
2019-06-26T22:39:06.301Z,19.41
2019-06-26T22:41:38.721Z,19.32
2019-06-26T22:44:12.665Z,19.23
2019-06-26T22:46:44.957Z,19.22
2019-06-26T22:49:17.660Z,19.16
2019-06-26T22:51:49.938Z,19.07
2019-06-26T22:54:22.366Z,19.03
2019-06-26T22:56:54.841Z,18.99
2019-06-26T22:59:28.205Z,18.97
2019-06-26T23:02:00.558Z,18.91
2019-06-26T23:04:32.955Z,18.80
2019-06-26T23:07:05.340Z,18.67
2019-06-26T23:09:37.782Z,18.61
2019-06-26T23:12:10.105Z,18.60
2019-06-26T23:14:42.504Z,18.59
2019-06-26T23:17:14.946Z,18.60
2019-06-26T23:19:47.355Z,18.56
2019-06-26T23:22:19.742Z,18.51
2019-06-26T23:24:52.267Z,18.54
2019-06-26T23:27:24.708Z,18.50
2019-06-26T23:29:57.134Z,18.41
2019-06-26T23:32:29.685Z,18.34
2019-06-26T23:35:02.752Z,18.20
2019-06-26T23:37:35.143Z,18.08
2019-06-26T23:40:08.182Z,17.95
2019-06-26T23:42:40.482Z,17.88
2019-06-26T23:45:12.960Z,17.76
2019-06-26T23:47:45.795Z,17.65
2019-06-26T23:50:18.324Z,17.55
2019-06-26T23:52:52.491Z,17.53
2019-06-26T23:55:24.805Z,17.55
2019-06-26T23:57:59.354Z,17.58
